Time;durP1;ratioP1;P1;durP2;ratioP2;P2;SDS_P1;SDS_P2;PMS_P1;PMS_P2;Temp;Humidity;BMP_temperature;BMP_pressure;BME280_temperature;BME280_humidity;BME280_pressure;Samples;Min_cycle;Max_cycle;Signal;HPM_P1;HPM_P2
2022/02/24 00:01:32;;;;;;;21.63;13.25;;;7.60;99.90;;;;;;5030947;28;20384;-66
2022/02/24 00:04:36;;;;;;;25.20;15.10;;;7.50;99.90;;;;;;5030554;28;20068;-66
2022/02/24 00:07:41;;;;;;;25.80;14.55;;;7.40;99.90;;;;;;5030756;28;20388;-66
2022/02/24 00:10:45;;;;;;;25.83;14.77;;;7.20;99.90;;;;;;5030714;28;20060;-65
2022/02/24 00:13:49;;;;;;;24.90;14.98;;;7.20;99.90;;;;;;5030399;28;20048;-66
2022/02/24 00:16:53;;;;;;;27.45;13.70;;;7.20;99.90;;;;;;5030567;28;20053;-66
2022/02/24 00:19:58;;;;;;;31.00;15.43;;;7.10;99.90;;;;;;5031311;28;20056;-66
2022/02/24 00:23:02;;;;;;;27.35;14.07;;;7.10;99.90;;;;;;5031491;28;20076;-66
2022/02/24 00:26:08;;;;;;;23.25;12.98;;;6.90;99.90;;;;;;5030723;28;20056;-66
2022/02/24 00:29:12;;;;;;;22.92;12.57;;;6.90;99.90;;;;;;5029797;28;20392;-65
2022/02/24 00:32:15;;;;;;;26.15;13.43;;;6.90;99.90;;;;;;5030685;28;20056;-66
2022/02/24 00:35:20;;;;;;;20.20;11.13;;;6.90;99.90;;;;;;5030537;28;20598;-66
2022/02/24 00:38:25;;;;;;;27.73;16.88;;;7.00;99.90;;;;;;5029850;28;20056;-66
2022/02/24 00:41:29;;;;;;;21.55;11.10;;;7.00;99.90;;;;;;5029503;28;20048;-66
2022/02/24 00:44:33;;;;;;;15.07;8.68;;;7.00;99.90;;;;;;5029907;28;20045;-66
2022/02/24 00:47:37;;;;;;;12.90;8.55;;;7.10;99.90;;;;;;5030096;28;20053;-65
2022/02/24 00:50:44;;;;;;;15.02;8.07;;;7.10;99.90;;;;;;5029941;28;20052;-66
2022/02/24 00:53:48;;;;;;;12.23;8.02;;;7.20;99.90;;;;;;5029819;28;20121;-66
2022/02/24 00:56:52;;;;;;;14.48;7.80;;;7.40;99.90;;;;;;5029593;28;20603;-66
2022/02/24 00:59:56;;;;;;;16.90;8.55;;;7.50;99.90;;;;;;5029401;28;20046;-65
2022/02/24 01:03:00;;;;;;;14.68;7.93;;;7.50;99.90;;;;;;5030198;28;20064;-66
2022/02/24 01:06:04;;;;;;;17.30;9.55;;;7.50;99.90;;;;;;5030263;28;20056;-66
2022/02/24 01:09:08;;;;;;;19.65;11.45;;;7.40;99.90;;;;;;5029419;28;20056;-66
2022/02/24 01:12:15;;;;;;;23.70;12.00;;;7.30;99.90;;;;;;5029380;28;20400;-66
2022/02/24 01:15:18;;;;;;;18.52;10.93;;;7.20;99.90;;;;;;5029728;28;20064;-66
2022/02/24 01:18:23;;;;;;;19.58;10.18;;;7.10;99.90;;;;;;5029518;28;20044;-65
2022/02/24 01:21:27;;;;;;;16.17;9.82;;;7.00;99.90;;;;;;5030043;28;20053;-66
2022/02/24 01:24:31;;;;;;;19.48;10.68;;;7.00;99.90;;;;;;5030207;28;20048;-66
2022/02/24 01:27:36;;;;;;;19.30;11.77;;;6.90;99.90;;;;;;5034035;28;20044;-66
2022/02/24 01:30:40;;;;;;;21.95;12.48;;;6.90;99.90;;;;;;5034986;28;20085;-66
2022/02/24 01:33:44;;;;;;;21.17;11.80;;;6.90;99.90;;;;;;5034952;28;20052;-66
2022/02/24 01:36:48;;;;;;;22.90;11.23;;;6.80;99.90;;;;;;5034033;28;20095;-66
2022/02/24 01:39:53;;;;;;;19.05;10.02;;;6.70;99.90;;;;;;5034862;28;20066;-65
2022/02/24 01:42:57;;;;;;;20.75;11.43;;;6.70;99.90;;;;;;5033437;28;20044;-66
2022/02/24 01:46:01;;;;;;;18.42;10.73;;;6.60;99.90;;;;;;5033555;28;20040;-66
2022/02/24 01:49:06;;;;;;;61.45;29.58;;;6.60;99.90;;;;;;5033119;28;20052;-66
2022/02/24 01:52:11;;;;;;;37.80;18.08;;;6.50;99.90;;;;;;5033799;28;20044;-66
2022/02/24 01:55:16;;;;;;;25.85;13.75;;;6.40;99.90;;;;;;5033487;28;20040;-65
2022/02/24 01:58:20;;;;;;;27.38;15.02;;;6.40;99.90;;;;;;5033845;28;20040;-66
2022/02/24 02:01:24;;;;;;;29.60;15.05;;;6.30;99.90;;;;;;5034063;28;20060;-65
2022/02/24 02:04:27;;;;;;;21.05;13.07;;;6.30;99.90;;;;;;5033830;28;20052;-66
2022/02/24 02:07:33;;;;;;;27.25;14.60;;;6.10;99.90;;;;;;5033156;28;20045;-65
2022/02/24 02:10:38;;;;;;;26.77;15.57;;;6.00;99.90;;;;;;5032862;28;20049;-65
2022/02/24 02:13:43;;;;;;;29.95;16.20;;;6.00;99.90;;;;;;5032838;28;20392;-66
2022/02/24 02:16:49;;;;;;;23.75;12.05;;;5.90;99.90;;;;;;5032869;28;20503;-66
2022/02/24 02:19:53;;;;;;;14.43;8.63;;;5.90;99.90;;;;;;5032547;28;20416;-66
2022/02/24 02:22:57;;;;;;;16.05;9.07;;;5.80;99.90;;;;;;5033289;28;20044;-65
2022/02/24 02:26:01;;;;;;;14.68;8.18;;;5.80;99.90;;;;;;5032852;28;20048;-65
2022/02/24 02:29:08;;;;;;;15.48;8.05;;;5.70;99.90;;;;;;5032199;28;20523;-65
2022/02/24 02:32:12;;;;;;;16.58;8.63;;;5.70;99.90;;;;;;5033144;28;20044;-66
2022/02/24 02:35:16;;;;;;;19.83;10.30;;;5.80;99.90;;;;;;5032831;28;20392;-66
2022/02/24 02:38:20;;;;;;;15.18;8.32;;;5.90;99.90;;;;;;5032386;28;20052;-66
2022/02/24 02:41:32;;;;;;;15.65;7.88;;;6.00;99.90;;;;;;5032424;28;21241;-66
2022/02/24 02:44:37;;;;;;;16.42;7.35;;;6.10;99.90;;;;;;5032549;28;20045;-66
2022/02/24 02:47:41;;;;;;;14.63;8.40;;;6.20;99.90;;;;;;5031026;28;20048;-66
2022/02/24 02:50:45;;;;;;;16.85;10.90;;;6.30;99.90;;;;;;5031130;28;20060;-66
2022/02/24 02:53:49;;;;;;;17.98;11.27;;;6.00;99.90;;;;;;5031994;28;20491;-66
2022/02/24 02:56:53;;;;;;;21.55;12.98;;;5.80;99.90;;;;;;5032194;28;20041;-66
2022/02/24 02:59:57;;;;;;;21.98;11.85;;;5.50;99.90;;;;;;5032354;28;20044;-66
2022/02/24 03:03:01;;;;;;;23.58;11.77;;;5.20;99.90;;;;;;5033077;28;20488;-66
2022/02/24 03:06:05;;;;;;;23.98;12.85;;;5.10;99.90;;;;;;5032422;28;20045;-66
2022/02/24 03:09:09;;;;;;;23.50;12.30;;;5.10;99.90;;;;;;5031830;28;20488;-65
2022/02/24 03:12:13;;;;;;;20.25;11.93;;;5.00;99.90;;;;;;5031911;28;20044;-66
2022/02/24 03:15:18;;;;;;;24.00;13.40;;;4.90;99.90;;;;;;5031440;28;20033;-65
2022/02/24 03:18:22;;;;;;;24.63;10.00;;;4.70;99.90;;;;;;5030148;28;20044;-65
2022/02/24 03:21:26;;;;;;;18.30;11.18;;;4.60;99.90;;;;;;5031399;28;20384;-66
2022/02/24 03:24:31;;;;;;;18.85;11.45;;;4.40;99.90;;;;;;5031487;28;20048;-65
2022/02/24 03:27:35;;;;;;;22.83;12.43;;;4.20;99.90;;;;;;5031579;28;20068;-65
2022/02/24 03:30:40;;;;;;;23.58;13.90;;;4.00;99.90;;;;;;5032192;28;20045;-65
2022/02/24 03:33:44;;;;;;;22.48;13.18;;;4.00;99.90;;;;;;5032067;28;20048;-65
2022/02/24 03:36:49;;;;;;;24.00;12.48;;;4.00;99.90;;;;;;5032235;28;20076;-65
2022/02/24 03:39:55;;;;;;;23.13;12.85;;;4.10;99.90;;;;;;5030655;28;20096;-66
2022/02/24 03:42:59;;;;;;;27.23;15.05;;;4.20;99.90;;;;;;5030435;28;20048;-66
2022/02/24 03:46:04;;;;;;;26.33;14.40;;;4.20;99.90;;;;;;5031420;28;20064;-65
2022/02/24 03:49:09;;;;;;;23.35;14.80;;;4.30;99.90;;;;;;5031038;28;20048;-66
2022/02/24 03:52:13;;;;;;;27.77;15.38;;;4.20;99.90;;;;;;5031319;28;20052;-65
2022/02/24 03:55:17;;;;;;;30.20;16.30;;;4.20;99.90;;;;;;5031317;28;20056;-65
2022/02/24 03:58:21;;;;;;;25.65;15.18;;;4.20;99.90;;;;;;5032208;28;20060;-65
2022/02/24 04:01:25;;;;;;;26.92;15.48;;;4.30;99.90;;;;;;5032141;28;20044;-65
2022/02/24 04:04:31;;;;;;;30.05;15.15;;;4.30;99.90;;;;;;5030489;28;20495;-65
2022/02/24 04:07:36;;;;;;;26.35;15.15;;;4.30;99.90;;;;;;5031095;28;20052;-66
2022/02/24 04:10:41;;;;;;;24.58;16.02;;;4.30;99.90;;;;;;5030993;28;20037;-65
2022/02/24 04:13:45;;;;;;;28.63;15.23;;;4.30;99.90;;;;;;5030821;28;20044;-65
2022/02/24 04:16:50;;;;;;;24.33;14.73;;;4.20;99.90;;;;;;5031055;28;20420;-65
2022/02/24 04:19:53;;;;;;;24.75;14.70;;;4.20;99.90;;;;;;5030493;28;20056;-65
2022/02/24 04:22:58;;;;;;;30.20;17.30;;;4.10;99.90;;;;;;5032135;28;20048;-65
2022/02/24 04:26:02;;;;;;;31.23;16.02;;;4.10;99.90;;;;;;5029963;28;20048;-65
2022/02/24 04:29:06;;;;;;;30.63;14.88;;;4.10;99.90;;;;;;5029916;28;20559;-66
2022/02/24 04:32:09;;;;;;;25.35;15.85;;;4.10;99.90;;;;;;5031472;28;20048;-66
2022/02/24 04:35:14;;;;;;;24.35;14.48;;;4.00;99.90;;;;;;5030625;28;20503;-65
2022/02/24 04:38:18;;;;;;;23.58;14.38;;;3.90;99.90;;;;;;5029370;28;20048;-66
2022/02/24 04:41:24;;;;;;;31.13;15.43;;;4.00;99.90;;;;;;5030171;28;20052;-65
2022/02/24 04:44:28;;;;;;;23.85;13.10;;;4.00;99.90;;;;;;5030423;28;20496;-65
2022/02/24 04:47:33;;;;;;;22.48;12.68;;;4.00;99.90;;;;;;5030624;28;20384;-65
2022/02/24 04:50:38;;;;;;;20.65;11.93;;;4.00;99.90;;;;;;5032698;28;20060;-65
2022/02/24 04:53:42;;;;;;;15.98;9.73;;;4.10;99.90;;;;;;5031854;28;20400;-65
2022/02/24 04:56:46;;;;;;;14.95;8.63;;;4.10;99.90;;;;;;5030374;28;20048;-65
2022/02/24 04:59:51;;;;;;;16.52;9.30;;;4.10;99.90;;;;;;5029730;28;20060;-65
2022/02/24 05:02:55;;;;;;;19.63;9.18;;;4.10;99.90;;;;;;5030094;28;20041;-65
2022/02/24 05:05:59;;;;;;;16.88;8.57;;;4.00;99.90;;;;;;5031454;28;20048;-66
2022/02/24 05:09:04;;;;;;;13.80;7.75;;;4.00;99.90;;;;;;5028845;28;20048;-65
2022/02/24 05:12:09;;;;;;;18.58;8.13;;;3.90;99.90;;;;;;5030147;28;20048;-65
2022/02/24 05:15:14;;;;;;;11.75;6.40;;;3.90;99.90;;;;;;5030339;28;20045;-65
2022/02/24 05:18:18;;;;;;;12.02;6.68;;;4.00;99.90;;;;;;5029612;28;20060;-65
2022/02/24 05:21:22;;;;;;;9.93;6.22;;;4.10;99.90;;;;;;5017537;28;20040;-65
2022/02/24 05:24:26;;;;;;;14.52;6.28;;;4.30;99.90;;;;;;5030398;28;20041;-65
2022/02/24 05:27:30;;;;;;;8.30;4.88;;;4.40;99.90;;;;;;5029756;28;20044;-65
2022/02/24 05:30:34;;;;;;;8.77;4.93;;;4.60;99.90;;;;;;5028678;28;20037;-65
2022/02/24 05:33:39;;;;;;;12.07;5.82;;;4.60;99.90;;;;;;5029880;28;20033;-66
2022/02/24 05:36:44;;;;;;;10.35;5.93;;;4.60;99.90;;;;;;5029507;28;20061;-65
2022/02/24 05:39:49;;;;;;;9.55;5.30;;;4.60;99.90;;;;;;5029188;28;20421;-65
2022/02/24 05:42:53;;;;;;;8.73;5.40;;;4.60;99.90;;;;;;5029925;28;20041;-65
2022/02/24 05:45:58;;;;;;;9.10;5.35;;;4.50;99.90;;;;;;5029699;28;20029;-65
2022/02/24 05:49:02;;;;;;;9.70;4.95;;;4.50;99.90;;;;;;5028889;28;20037;-65
2022/02/24 05:52:06;;;;;;;11.40;5.68;;;4.50;99.90;;;;;;5029753;28;20072;-65
2022/02/24 05:55:10;;;;;;;8.05;4.85;;;4.60;99.90;;;;;;5029375;28;20401;-65
2022/02/24 05:58:14;;;;;;;9.02;5.07;;;4.60;99.90;;;;;;5029497;28;20045;-65
2022/02/24 06:01:18;;;;;;;10.18;5.38;;;4.70;99.90;;;;;;5029755;28;20377;-65
2022/02/24 06:04:23;;;;;;;10.32;6.03;;;4.70;99.90;;;;;;5028267;28;20045;-65
2022/02/24 06:07:27;;;;;;;10.80;5.85;;;4.80;99.90;;;;;;5028332;28;20049;-65
2022/02/24 06:10:31;;;;;;;12.13;5.82;;;4.90;99.90;;;;;;5029211;28;20061;-65
2022/02/24 06:13:35;;;;;;;11.30;5.90;;;4.90;99.90;;;;;;5018493;28;20408;-65
2022/02/24 06:16:40;;;;;;;12.05;6.28;;;5.00;99.90;;;;;;5032457;28;20048;-66
2022/02/24 06:19:45;;;;;;;10.30;5.45;;;5.10;99.90;;;;;;5031978;28;20044;-65
2022/02/24 06:22:49;;;;;;;10.88;5.50;;;5.20;99.90;;;;;;5033285;28;20048;-66
2022/02/24 06:25:54;;;;;;;13.95;7.30;;;4.90;99.90;;;;;;5032356;28;20048;-66
2022/02/24 06:28:58;;;;;;;11.63;5.95;;;5.00;99.90;;;;;;5032608;28;20048;-66
2022/02/24 06:32:02;;;;;;;14.90;6.57;;;5.10;99.90;;;;;;5031827;28;20067;-66
2022/02/24 06:35:07;;;;;;;13.07;6.32;;;5.10;99.90;;;;;;5032747;28;20412;-66
2022/02/24 06:38:11;;;;;;;9.85;5.45;;;5.30;99.90;;;;;;5032145;28;20525;-66
2022/02/24 06:41:16;;;;;;;11.23;5.13;;;6.10;99.90;;;;;;5032510;28;20041;-66
2022/02/24 06:44:21;;;;;;;8.73;4.78;;;8.90;99.90;;;;;;5032238;28;20048;-66
2022/02/24 06:47:24;;;;;;;11.27;5.90;;;11.60;99.90;;;;;;5032113;28;20041;-67
2022/02/24 06:50:29;;;;;;;11.77;7.18;;;11.80;99.50;;;;;;5031680;28;20044;-66
2022/02/24 06:53:33;;;;;;;16.42;6.80;;;10.90;99.90;;;;;;5032725;28;20040;-66
2022/02/24 06:56:37;;;;;;;13.88;5.43;;;11.60;99.90;;;;;;5032181;28;20400;-66
2022/02/24 06:59:41;;;;;;;9.32;5.10;;;12.10;99.90;;;;;;5031416;28;20052;-66
2022/02/24 07:02:45;;;;;;;11.45;6.25;;;12.40;99.90;;;;;;5027868;28;20040;-67
2022/02/24 07:05:49;;;;;;;15.07;6.50;;;12.50;99.00;;;;;;5027643;28;20052;-66
2022/02/24 07:08:53;;;;;;;10.77;6.13;;;13.10;98.80;;;;;;5030724;28;20400;-66
2022/02/24 07:11:58;;;;;;;13.10;5.60;;;14.90;97.60;;;;;;5030683;28;20049;-66
2022/02/24 07:15:04;;;;;;;13.63;5.78;;;16.40;94.70;;;;;;5029130;28;20060;-66
2022/02/24 07:18:11;;;;;;;8.95;5.65;;;17.70;91.50;;;;;;5023801;28;20064;-66
2022/02/24 07:21:15;;;;;;;7.90;5.35;;;18.80;88.10;;;;;;5030004;28;20044;-67
2022/02/24 07:24:21;;;;;;;10.55;4.65;;;19.70;83.40;;;;;;5028360;28;20045;-66
2022/02/24 07:27:25;;;;;;;9.52;6.00;;;19.80;80.60;;;;;;5022539;28;20660;-67
2022/02/24 07:30:29;;;;;;;7.68;5.18;;;19.10;80.40;;;;;;5024234;28;20482;-67
2022/02/24 07:33:33;;;;;;;9.73;5.93;;;18.00;79.20;;;;;;5027505;28;20052;-67
2022/02/24 07:36:39;;;;;;;8.88;5.82;;;16.20;81.30;;;;;;5026406;28;20044;-67
2022/02/24 07:39:43;;;;;;;7.07;5.22;;;16.90;82.10;;;;;;5028495;28;20044;-67
2022/02/24 07:42:48;;;;;;;9.45;5.60;;;15.40;80.80;;;;;;5020642;28;20101;-67
2022/02/24 07:45:52;;;;;;;7.38;5.32;;;15.40;83.70;;;;;;5028931;28;20432;-67
2022/02/24 07:48:56;;;;;;;9.02;5.95;;;16.50;82.10;;;;;;5023866;28;20045;-67
2022/02/24 07:52:02;;;;;;;11.50;6.03;;;17.40;80.80;;;;;;5021920;28;20041;-67
2022/02/24 07:55:09;;;;;;;8.45;5.43;;;17.80;79.60;;;;;;5023989;28;20404;-67
2022/02/24 07:58:13;;;;;;;9.45;6.15;;;18.10;79.00;;;;;;5020895;28;20052;-67
2022/02/24 08:01:21;;;;;;;11.32;7.82;;;19.30;78.10;;;;;;5023731;28;20041;-67
2022/02/24 08:04:25;;;;;;;11.38;6.85;;;19.90;77.10;;;;;;5028817;28;20052;-65
2022/02/24 08:07:29;;;;;;;10.30;6.22;;;20.20;75.40;;;;;;5020824;28;20048;-65
2022/02/24 08:10:33;;;;;;;8.95;6.60;;;20.80;74.80;;;;;;5025059;28;20033;-67
2022/02/24 08:13:38;;;;;;;11.18;6.65;;;21.40;74.10;;;;;;5025975;28;20041;-67
2022/02/24 08:16:42;;;;;;;10.10;5.93;;;22.80;72.60;;;;;;5025537;28;20412;-68
2022/02/24 08:19:46;;;;;;;9.50;5.95;;;23.40;70.60;;;;;;5022526;28;20060;-67
2022/02/24 08:22:51;;;;;;;9.50;5.60;;;24.90;69.40;;;;;;5023245;28;20044;-67
2022/02/24 08:25:57;;;;;;;8.80;5.78;;;25.80;66.20;;;;;;5028484;28;20048;-67
2022/02/24 08:29:02;;;;;;;8.02;5.80;;;25.70;63.80;;;;;;5020456;28;20037;-65
2022/02/24 08:32:07;;;;;;;9.18;5.85;;;24.80;62.80;;;;;;5028239;28;20048;-67
2022/02/24 08:35:13;;;;;;;10.07;6.90;;;24.90;63.20;;;;;;5027737;28;20048;-68
2022/02/24 08:38:18;;;;;;;9.70;6.88;;;22.80;63.40;;;;;;5026871;28;20072;-67
2022/02/24 08:41:23;;;;;;;14.73;8.68;;;22.40;64.90;;;;;;5022826;28;20199;-68
2022/02/24 08:44:27;;;;;;;12.35;8.30;;;23.10;64.70;;;;;;5027478;28;20048;-67
2022/02/24 08:47:33;;;;;;;10.73;6.63;;;22.00;65.70;;;;;;5023488;28;20704;-67
2022/02/24 08:50:39;;;;;;;8.13;5.72;;;23.40;64.50;;;;;;5024768;28;20384;-67
2022/02/24 08:53:43;;;;;;;9.68;6.45;;;24.90;63.50;;;;;;5026727;28;20048;-65
2022/02/24 08:56:47;;;;;;;7.00;5.28;;;25.90;62.20;;;;;;5021232;28;20056;-65
2022/02/24 08:59:51;;;;;;;7.53;6.07;;;26.60;60.80;;;;;;5024610;28;20048;-65
2022/02/24 09:02:56;;;;;;;8.20;5.75;;;27.90;60.30;;;;;;5026859;28;20036;-65
2022/02/24 09:06:00;;;;;;;7.43;5.75;;;27.90;59.10;;;;;;5030633;28;20060;-65
2022/02/24 09:09:05;;;;;;;8.85;6.22;;;27.90;58.70;;;;;;5030374;28;20060;-65
2022/02/24 09:12:10;;;;;;;12.73;8.73;;;27.10;57.80;;;;;;5029891;28;20052;-65
2022/02/24 09:15:14;;;;;;;14.15;9.73;;;25.30;59.20;;;;;;5029469;28;20448;-67
2022/02/24 09:18:18;;;;;;;13.63;10.05;;;21.90;63.70;;;;;;5029592;28;20048;-67
2022/02/24 09:21:22;;;;;;;14.30;9.77;;;22.80;62.70;;;;;;5029456;28;20040;-67
2022/02/24 09:24:26;;;;;;;15.77;10.90;;;23.00;62.00;;;;;;5029808;28;20396;-67
2022/02/24 09:27:30;;;;;;;14.70;10.15;;;20.80;64.40;;;;;;5029587;28;20057;-67
2022/02/24 09:30:34;;;;;;;16.52;10.07;;;20.60;66.10;;;;;;5029629;28;20052;-67
2022/02/24 09:33:39;;;;;;;13.48;9.80;;;17.90;67.60;;;;;;5029709;28;20040;-67
2022/02/24 09:36:44;;;;;;;13.20;9.20;;;17.90;70.70;;;;;;5029365;28;20396;-67
2022/02/24 09:39:48;;;;;;;12.55;9.35;;;18.00;68.40;;;;;;5028720;28;20060;-67
2022/02/24 09:42:53;;;;;;;13.05;8.63;;;18.20;68.60;;;;;;5029348;28;20408;-67
2022/02/24 09:46:10;;;;;;;13.15;8.98;;;19.10;68.30;;;;;;5029498;28;20053;-67
2022/02/24 09:49:17;;;;;;;11.30;7.75;;;21.40;66.30;;;;;;5031671;28;20044;-67
2022/02/24 09:52:21;;;;;;;12.43;8.15;;;22.90;64.10;;;;;;5033254;28;20060;-67
2022/02/24 09:55:26;;;;;;;15.00;9.32;;;24.10;62.80;;;;;;5032966;28;20045;-67
2022/02/24 09:58:34;;;;;;;12.60;9.20;;;24.80;61.20;;;;;;5032110;28;20041;-67
2022/02/24 10:01:40;;;;;;;11.18;8.02;;;25.50;60.90;;;;;;5032909;28;20097;-67
2022/02/24 10:05:16;;;;;;;12.18;8.68;;;25.90;60.70;;;;;;5032976;28;20060;-67
2022/02/24 10:08:31;;;;;;;10.38;7.55;;;25.40;60.20;;;;;;5032349;28;20052;-67
2022/02/24 10:11:41;;;;;;;12.43;7.50;;;24.60;60.60;;;;;;5033101;28;20048;-67
2022/02/24 10:14:45;;;;;;;10.82;7.22;;;24.10;62.00;;;;;;5032938;28;20045;-67
2022/02/24 10:18:04;;;;;;;14.63;8.50;;;25.30;59.50;;;;;;5033113;28;20472;-67
2022/02/24 10:21:17;;;;;;;12.00;8.23;;;24.70;60.40;;;;;;5032682;28;20033;-68
2022/02/24 10:24:24;;;;;;;13.43;8.32;;;26.00;58.80;;;;;;5031939;28;20053;-67
2022/02/24 10:27:30;;;;;;;13.93;8.82;;;28.40;59.00;;;;;;5031790;28;20048;-67
2022/02/24 10:30:34;;;;;;;14.20;9.20;;;28.10;57.90;;;;;;5032855;28;20049;-65
2022/02/24 10:33:44;;;;;;;12.95;7.78;;;25.90;58.30;;;;;;5032725;28;20099;-65
2022/02/24 10:36:48;;;;;;;12.70;8.15;;;28.00;59.60;;;;;;5032966;28;20052;-65
2022/02/24 10:39:51;;;;;;;11.88;8.32;;;30.20;56.90;;;;;;5031982;28;20061;-65
2022/02/24 10:43:20;;;;;;;11.27;8.13;;;24.50;58.90;;;;;;5032506;28;20064;-65
2022/02/24 10:46:24;;;;;;;11.63;7.78;;;24.60;60.80;;;;;;5031821;28;20040;-65
2022/02/24 10:49:31;;;;;;;14.75;8.57;;;25.30;58.80;;;;;;5032005;28;20053;-65
2022/02/24 10:52:36;;;;;;;10.23;7.78;;;25.90;60.30;;;;;;5030094;28;20040;-64
2022/02/24 10:55:57;;;;;;;13.10;8.25;;;27.70;58.00;;;;;;5028093;28;20429;-67
2022/02/24 10:59:03;;;;;;;11.23;7.55;;;27.30;57.50;;;;;;5024265;28;20045;-67
2022/02/24 11:02:07;;;;;;;12.57;8.55;;;28.10;56.50;;;;;;5030906;28;20036;-67
2022/02/24 11:05:13;;;;;;;11.93;7.90;;;25.30;58.50;;;;;;5021739;28;20044;-66
2022/02/24 11:08:17;;;;;;;14.55;9.05;;;26.60;59.30;;;;;;5028575;28;20064;-67
2022/02/24 11:11:38;;;;;;;13.38;8.65;;;25.10;60.20;;;;;;5026943;28;20044;-66
2022/02/24 11:14:47;;;;;;;11.75;7.03;;;26.20;60.30;;;;;;5024167;28;20052;-66
2022/02/24 11:17:52;;;;;;;10.38;7.53;;;26.00;57.30;;;;;;5026905;28;20045;-66
2022/02/24 11:20:58;;;;;;;9.80;6.93;;;24.50;60.30;;;;;;5029129;28;20044;-65
2022/02/24 11:24:03;;;;;;;9.23;6.72;;;23.70;59.20;;;;;;5030338;28;20052;-66
2022/02/24 11:27:35;;;;;;;8.27;5.57;;;27.40;57.70;;;;;;5026391;28;20053;-66
2022/02/24 11:30:46;;;;;;;6.80;5.40;;;28.90;54.70;;;;;;5025676;28;20373;-64
2022/02/24 11:33:52;;;;;;;13.88;6.03;;;29.90;53.80;;;;;;5026857;28;20040;-65
2022/02/24 11:36:58;;;;;;;5.72;3.92;;;29.60;54.20;;;;;;5030920;28;20044;-65
2022/02/24 11:40:08;;;;;;;5.47;4.65;;;31.50;51.40;;;;;;5027059;28;20040;-65
2022/02/24 11:43:20;;;;;;;7.93;5.15;;;32.50;51.40;;;;;;5026848;28;20404;-64
2022/02/24 11:46:24;;;;;;;7.07;5.45;;;30.70;51.30;;;;;;5029759;28;20484;-65
2022/02/24 11:49:54;;;;;;;6.70;4.45;;;29.70;51.60;;;;;;5027603;28;20057;-64
2022/02/24 11:52:59;;;;;;;7.97;4.57;;;29.90;50.70;;;;;;5030049;28;20479;-64
2022/02/24 11:56:13;;;;;;;6.28;4.45;;;28.40;52.50;;;;;;5029450;28;20057;-64
2022/02/24 11:59:28;;;;;;;10.40;4.10;;;28.20;51.90;;;;;;5026553;28;20048;-64
2022/02/24 12:02:47;;;;;;;5.72;4.40;;;27.50;51.20;;;;;;5027603;28;20048;-64
2022/02/24 12:06:07;;;;;;;7.03;4.25;;;30.10;51.40;;;;;;5026304;28;20048;-65
2022/02/24 12:09:14;;;;;;;5.68;4.13;;;33.60;49.90;;;;;;5024600;28;20044;-64
2022/02/24 12:12:23;;;;;;;5.03;3.10;;;34.50;48.30;;;;;;5025782;28;20052;-65
2022/02/24 12:15:27;;;;;;;4.50;2.85;;;34.00;47.00;;;;;;5022291;28;20040;-65
2022/02/24 12:18:39;;;;;;;6.53;3.28;;;35.10;47.10;;;;;;5027600;28;20045;-65
2022/02/24 12:21:47;;;;;;;5.93;3.50;;;33.10;45.80;;;;;;5028454;28;20045;-65
2022/02/24 12:25:04;;;;;;;6.82;3.05;;;33.20;46.40;;;;;;5034008;28;20044;-65
2022/02/24 12:28:09;;;;;;;4.75;3.50;;;29.40;49.80;;;;;;5022629;28;20044;-64
2022/02/24 12:31:20;;;;;;;6.43;3.13;;;28.10;49.50;;;;;;5029159;28;20043;-65
2022/02/24 12:34:28;;;;;;;4.18;2.92;;;30.30;50.20;;;;;;5027750;28;20060;-65
2022/02/24 12:37:33;;;;;;;3.25;2.58;;;31.80;48.20;;;;;;5026258;28;20044;-66
2022/02/24 12:40:41;;;;;;;4.70;2.30;;;32.90;46.90;;;;;;5027103;28;20052;-65
2022/02/24 12:43:45;;;;;;;6.35;2.45;;;33.00;45.70;;;;;;5022869;28;20040;-65
2022/02/24 12:46:50;;;;;;;3.88;2.58;;;32.00;44.80;;;;;;5025713;28;20060;-65
2022/02/24 12:49:56;;;;;;;5.82;2.05;;;30.80;44.30;;;;;;5023514;28;20413;-65
2022/02/24 12:53:07;;;;;;;6.70;2.13;;;30.10;46.60;;;;;;5019975;28;20076;-66
2022/02/24 12:56:11;;;;;;;3.15;2.17;;;29.90;44.90;;;;;;5021659;28;20408;-66
2022/02/24 12:59:17;;;;;;;4.68;2.30;;;30.90;45.00;;;;;;5026115;28;20064;-65
2022/02/24 13:02:24;;;;;;;4.88;2.67;;;30.10;45.20;;;;;;5023588;28;20049;-65
2022/02/24 13:05:27;;;;;;;3.45;2.15;;;28.60;44.80;;;;;;5022313;28;20508;-67
2022/02/24 13:12:03;;;;;;;4.32;2.17;;;27.70;46.80;;;;;;5025438;28;20036;-66
2022/02/24 13:15:09;;;;;;;3.67;1.55;;;28.80;46.10;;;;;;5028128;28;20045;-66
2022/02/24 13:18:17;;;;;;;3.70;1.77;;;29.40;44.80;;;;;;5019837;28;20033;-66
2022/02/24 13:21:25;;;;;;;2.92;1.88;;;25.90;44.20;;;;;;5021660;28;20040;-66
2022/02/24 13:24:32;;;;;;;4.85;2.10;;;27.40;47.10;;;;;;5031620;28;20048;-66
2022/02/24 13:27:46;;;;;;;4.80;3.00;;;28.10;48.00;;;;;;5029281;28;20033;-66
2022/02/24 13:30:55;;;;;;;3.78;2.40;;;27.30;48.40;;;;;;5033406;28;20048;-66
2022/02/24 13:34:14;;;;;;;5.00;2.53;;;27.00;48.90;;;;;;5033509;28;20044;-66
2022/02/24 13:37:28;;;;;;;3.85;2.58;;;26.50;49.10;;;;;;5027923;28;20049;-66
2022/02/24 13:40:33;;;;;;;10.55;2.72;;;26.60;49.40;;;;;;5032738;28;20036;-66
2022/02/24 13:43:39;;;;;;;3.95;2.75;;;27.80;48.90;;;;;;5029401;28;20041;-66
2022/02/24 13:46:43;;;;;;;4.38;3.15;;;28.70;49.20;;;;;;5034235;28;20045;-66
2022/02/24 13:49:48;;;;;;;4.45;2.70;;;30.10;48.40;;;;;;5031642;28;20048;-66
2022/02/24 13:52:55;;;;;;;4.63;3.08;;;31.20;46.60;;;;;;5024507;28;20479;-66
2022/02/24 13:56:13;;;;;;;4.18;2.70;;;32.10;46.20;;;;;;5031737;28;20048;-66
2022/02/24 13:59:24;;;;;;;6.22;3.05;;;31.40;44.10;;;;;;5027766;28;20056;-66
2022/02/24 14:02:33;;;;;;;4.93;3.10;;;29.80;46.00;;;;;;5026344;28;20048;-66
2022/02/24 14:05:39;;;;;;;4.35;3.10;;;29.30;46.00;;;;;;5026979;28;20048;-67
2022/02/24 14:08:48;;;;;;;5.60;3.70;;;29.50;47.10;;;;;;5032734;28;20053;-67
2022/02/24 14:11:52;;;;;;;5.22;3.40;;;28.70;48.20;;;;;;5026174;28;20425;-66
2022/02/24 14:14:56;;;;;;;5.45;3.55;;;27.00;48.70;;;;;;5025917;28;20048;-66
2022/02/24 14:18:02;;;;;;;7.43;4.35;;;26.10;50.30;;;;;;5028539;28;20395;-66
2022/02/24 14:21:07;;;;;;;9.15;4.43;;;25.10;51.40;;;;;;5032079;28;20044;-66
2022/02/24 14:24:12;;;;;;;7.15;4.80;;;24.60;52.10;;;;;;5030909;28;20036;-66
2022/02/24 14:27:16;;;;;;;7.68;4.18;;;23.80;52.90;;;;;;5031796;28;20057;-66
2022/02/24 14:30:20;;;;;;;6.95;4.32;;;23.00;54.60;;;;;;5025978;28;20043;-66
2022/02/24 14:33:25;;;;;;;7.18;4.75;;;22.80;54.60;;;;;;5031737;28;20044;-66
2022/02/24 14:36:29;;;;;;;7.65;4.07;;;22.40;55.20;;;;;;5029416;28;20045;-66
2022/02/24 14:39:33;;;;;;;8.75;4.35;;;22.30;55.40;;;;;;5024947;28;20048;-66
2022/02/24 14:42:38;;;;;;;10.48;5.40;;;22.20;56.10;;;;;;5025736;28;20049;-66
2022/02/24 14:45:44;;;;;;;8.32;4.55;;;22.00;55.80;;;;;;5032241;28;20048;-66
2022/02/24 14:48:48;;;;;;;6.97;4.05;;;21.80;56.70;;;;;;5032311;28;20044;-66
2022/02/24 14:51:52;;;;;;;9.23;4.60;;;21.20;57.60;;;;;;5031944;28;20052;-66
2022/02/24 14:54:58;;;;;;;7.82;4.40;;;20.70;58.20;;;;;;5028704;28;20048;-66
2022/02/24 14:58:03;;;;;;;7.97;4.38;;;20.40;58.80;;;;;;5022912;28;20487;-65
2022/02/24 15:01:09;;;;;;;7.07;4.03;;;20.00;58.80;;;;;;5030989;28;20052;-66
2022/02/24 15:04:13;;;;;;;10.15;3.70;;;19.80;58.60;;;;;;5031711;28;20056;-66
2022/02/24 15:07:18;;;;;;;8.27;3.75;;;19.60;58.20;;;;;;5030248;28;20480;-68
2022/02/24 15:10:23;;;;;;;4.82;2.90;;;19.50;59.40;;;;;;5031028;28;20048;-68
2022/02/24 15:13:27;;;;;;;6.75;3.25;;;19.30;58.90;;;;;;5031035;28;20518;-66
2022/02/24 15:16:31;;;;;;;7.38;3.05;;;19.20;59.50;;;;;;5019685;28;20048;-65
2022/02/24 15:19:39;;;;;;;7.15;3.15;;;18.90;59.70;;;;;;5031682;28;20048;-66
2022/02/24 15:22:44;;;;;;;10.35;3.13;;;19.30;59.50;;;;;;5027480;28;20052;-66
2022/02/24 15:25:49;;;;;;;4.65;2.25;;;19.90;58.70;;;;;;5024289;28;20036;-66
2022/02/24 15:28:54;;;;;;;3.28;1.55;;;19.70;59.30;;;;;;5029964;28;20040;-65
2022/02/24 15:31:59;;;;;;;2.80;1.80;;;19.30;58.20;;;;;;5022820;28;20056;-66
2022/02/24 15:35:04;;;;;;;2.10;1.05;;;19.70;58.40;;;;;;5016409;28;20048;-66
2022/02/24 15:38:08;;;;;;;4.80;1.50;;;20.40;56.60;;;;;;5030673;28;20503;-65
2022/02/24 15:41:13;;;;;;;2.70;1.50;;;20.80;57.10;;;;;;5031447;28;20045;-66
2022/02/24 15:44:17;;;;;;;5.13;1.63;;;20.50;56.50;;;;;;5031456;28;20045;-66
2022/02/24 15:47:22;;;;;;;5.78;1.40;;;20.40;55.50;;;;;;5029972;28;20044;-66
2022/02/24 15:50:27;;;;;;;6.22;1.70;;;19.80;57.90;;;;;;5024942;28;20056;-65
2022/02/24 15:53:31;;;;;;;3.00;1.77;;;20.40;56.40;;;;;;5030598;28;20040;-65
2022/02/24 15:56:36;;;;;;;3.55;1.65;;;19.60;56.90;;;;;;5031220;28;20040;-65
2022/02/24 15:59:40;;;;;;;2.83;1.13;;;19.10;58.90;;;;;;5028887;28;20052;-67
2022/02/24 16:02:47;;;;;;;3.08;1.70;;;18.80;59.00;;;;;;5029751;28;20037;-68
2022/02/24 16:05:51;;;;;;;3.88;2.20;;;18.50;59.60;;;;;;5028046;28;20051;-65